sensor_id;sensor_type;location;lat;lon;timestamp;pressure;altitude;pressure_sealevel;temperature;humidity
39613;BME280;25303;48.896;13.342;2023-04-28T00:00:16;92904.03;;;7.34;49.96
39613;BME280;25303;48.896;13.342;2023-04-28T00:02:59;92906.88;;;7.31;49.97
39613;BME280;25303;48.896;13.342;2023-04-28T00:05:42;92900.81;;;7.32;50.08
39613;BME280;25303;48.896;13.342;2023-04-28T00:08:26;92902.41;;;7.33;50.19
39613;BME280;25303;48.896;13.342;2023-04-28T00:11:10;92898.91;;;7.34;50.01
39613;BME280;25303;48.896;13.342;2023-04-28T00:13:53;92892.72;;;7.37;49.92
39613;BME280;25303;48.896;13.342;2023-04-28T00:16:35;92887.47;;;7.38;49.89
39613;BME280;25303;48.896;13.342;2023-04-28T00:19:19;92892.84;;;7.35;49.90
39613;BME280;25303;48.896;13.342;2023-04-28T00:22:02;92893.38;;;7.39;49.98
39613;BME280;25303;48.896;13.342;2023-04-28T00:24:46;92892.16;;;7.43;49.94
39613;BME280;25303;48.896;13.342;2023-04-28T00:27:29;92888.81;;;7.42;49.98
39613;BME280;25303;48.896;13.342;2023-04-28T00:30:12;92886.25;;;7.42;49.92
39613;BME280;25303;48.896;13.342;2023-04-28T00:32:55;92877.63;;;7.43;50.00
39613;BME280;25303;48.896;13.342;2023-04-28T00:35:38;92872.34;;;7.45;49.80
39613;BME280;25303;48.896;13.342;2023-04-28T00:38:22;92859.56;;;7.45;49.69
39613;BME280;25303;48.896;13.342;2023-04-28T00:41:08;92864.53;;;7.47;49.69
39613;BME280;25303;48.896;13.342;2023-04-28T00:43:51;92860.66;;;7.42;49.85
39613;BME280;25303;48.896;13.342;2023-04-28T00:46:34;92859.69;;;7.43;49.65
39613;BME280;25303;48.896;13.342;2023-04-28T00:49:17;92858.88;;;7.43;49.94
39613;BME280;25303;48.896;13.342;2023-04-28T00:52:03;92857.94;;;7.44;49.89
39613;BME280;25303;48.896;13.342;2023-04-28T00:54:47;92853.63;;;7.44;49.68
39613;BME280;25303;48.896;13.342;2023-04-28T00:57:33;92852.13;;;7.42;49.80
39613;BME280;25303;48.896;13.342;2023-04-28T01:00:16;92860.66;;;7.42;49.78
39613;BME280;25303;48.896;13.342;2023-04-28T01:02:59;92858.34;;;7.39;50.00
39613;BME280;25303;48.896;13.342;2023-04-28T01:05:47;92856.59;;;7.40;49.77
39613;BME280;25303;48.896;13.342;2023-04-28T01:08:31;92858.19;;;7.41;49.79
39613;BME280;25303;48.896;13.342;2023-04-28T01:11:15;92864.16;;;7.41;49.87
39613;BME280;25303;48.896;13.342;2023-04-28T01:14:18;92859.81;;;7.42;49.75
39613;BME280;25303;48.896;13.342;2023-04-28T01:17:01;92858.88;;;7.43;49.92
39613;BME280;25303;48.896;13.342;2023-04-28T01:19:45;92852.97;;;7.42;49.82
39613;BME280;25303;48.896;13.342;2023-04-28T01:22:28;92858.75;;;7.44;49.87
39613;BME280;25303;48.896;13.342;2023-04-28T01:25:12;92860.50;;;7.44;49.91
39613;BME280;25303;48.896;13.342;2023-04-28T01:27:55;92852.81;;;7.44;49.75
39613;BME280;25303;48.896;13.342;2023-04-28T01:30:38;92857.94;;;7.44;49.77
39613;BME280;25303;48.896;13.342;2023-04-28T01:33:21;92856.84;;;7.47;49.78
39613;BME280;25303;48.896;13.342;2023-04-28T01:36:04;92859.56;;;7.45;49.69
39613;BME280;25303;48.896;13.342;2023-04-28T01:38:47;92856.84;;;7.47;49.68
39613;BME280;25303;48.896;13.342;2023-04-28T01:41:32;92858.59;;;7.46;49.83
39613;BME280;25303;48.896;13.342;2023-04-28T01:44:17;92863.59;;;7.48;49.67
39613;BME280;25303;48.896;13.342;2023-04-28T01:47:02;92861.97;;;7.47;50.05
39613;BME280;25303;48.896;13.342;2023-04-28T01:49:45;92855.09;;;7.47;49.74
39613;BME280;25303;48.896;13.342;2023-04-28T01:52:29;92856.72;;;7.48;49.85
39613;BME280;25303;48.896;13.342;2023-04-28T01:55:12;92856.72;;;7.48;49.74
39613;BME280;25303;48.896;13.342;2023-04-28T01:57:57;92852.38;;;7.49;49.50
39613;BME280;25303;48.896;13.342;2023-04-28T02:00:42;92852.94;;;7.52;49.55
39613;BME280;25303;48.896;13.342;2023-04-28T02:03:27;92846.84;;;7.53;49.69
39613;BME280;25303;48.896;13.342;2023-04-28T02:06:10;92843.34;;;7.54;49.48
39613;BME280;25303;48.896;13.342;2023-04-28T02:08:53;92837.28;;;7.55;49.33
39613;BME280;25303;48.896;13.342;2023-04-28T02:11:36;92835.53;;;7.56;49.56
39613;BME280;25303;48.896;13.342;2023-04-28T02:14:20;92838.88;;;7.56;49.58
39613;BME280;25303;48.896;13.342;2023-04-28T02:17:04;92842.28;;;7.57;49.45
39613;BME280;25303;48.896;13.342;2023-04-28T02:19:47;92835.25;;;7.59;49.50
39613;BME280;25303;48.896;13.342;2023-04-28T02:22:30;92839.56;;;7.58;49.68
39613;BME280;25303;48.896;13.342;2023-04-28T02:25:13;92839.44;;;7.60;49.40
39613;BME280;25303;48.896;13.342;2023-04-28T02:27:55;92835.13;;;7.60;49.29
39613;BME280;25303;48.896;13.342;2023-04-28T02:30:41;92837.53;;;7.62;49.42
39613;BME280;25303;48.896;13.342;2023-04-28T02:33:24;92841.59;;;7.65;49.18
39613;BME280;25303;48.896;13.342;2023-04-28T02:36:08;92836.97;;;7.68;49.11
39613;BME280;25303;48.896;13.342;2023-04-28T02:38:51;92821.59;;;7.68;49.14
39613;BME280;25303;48.896;13.342;2023-04-28T02:41:33;92824.84;;;7.70;49.04
39613;BME280;25303;48.896;13.342;2023-04-28T02:44:16;92823.22;;;7.69;49.33
39613;BME280;25303;48.896;13.342;2023-04-28T02:47:01;92820.50;;;7.71;49.05
39613;BME280;25303;48.896;13.342;2023-04-28T02:49:44;92823.22;;;7.69;49.18
39613;BME280;25303;48.896;13.342;2023-04-28T02:52:27;92828.50;;;7.68;48.93
39613;BME280;25303;48.896;13.342;2023-04-28T02:55:10;92826.88;;;7.67;49.33
39613;BME280;25303;48.896;13.342;2023-04-28T02:57:53;92837.25;;;7.65;49.03
39613;BME280;25303;48.896;13.342;2023-04-28T03:00:36;92827.16;;;7.64;49.25
39613;BME280;25303;48.896;13.342;2023-04-28T03:03:20;92834.56;;;7.67;49.31
39613;BME280;25303;48.896;13.342;2023-04-28T03:06:04;92835.88;;;7.71;49.11
39613;BME280;25303;48.896;13.342;2023-04-28T03:08:47;92822.13;;;7.72;49.08
39613;BME280;25303;48.896;13.342;2023-04-28T03:11:30;92804.19;;;7.72;48.87
39613;BME280;25303;48.896;13.342;2023-04-28T03:14:13;92807.56;;;7.72;48.79
39613;BME280;25303;48.896;13.342;2023-04-28T03:16:57;92788.81;;;7.72;48.75
39613;BME280;25303;48.896;13.342;2023-04-28T03:19:41;92788.97;;;7.70;48.77
39613;BME280;25303;48.896;13.342;2023-04-28T03:22:24;92772.69;;;7.62;48.96
39613;BME280;25303;48.896;13.342;2023-04-28T03:25:07;92777.28;;;7.58;48.74
39613;BME280;25303;48.896;13.342;2023-04-28T03:27:59;92767.72;;;7.60;48.77
39613;BME280;25303;48.896;13.342;2023-04-28T03:30:42;92781.06;;;7.54;48.92
39613;BME280;25303;48.896;13.342;2023-04-28T03:33:25;92781.22;;;7.52;49.23
39613;BME280;25303;48.896;13.342;2023-04-28T03:36:10;92778.00;;;7.50;49.17
39613;BME280;25303;48.896;13.342;2023-04-28T03:38:52;92791.84;;;7.48;49.20
39613;BME280;25303;48.896;13.342;2023-04-28T03:41:35;92806.97;;;7.51;49.18
39613;BME280;25303;48.896;13.342;2023-04-28T03:44:56;92800.75;;;7.53;49.05
39613;BME280;25303;48.896;13.342;2023-04-28T03:47:39;92796.28;;;7.55;49.01
39613;BME280;25303;48.896;13.342;2023-04-28T03:50:22;92801.28;;;7.57;48.89
39613;BME280;25303;48.896;13.342;2023-04-28T03:53:09;92803.19;;;7.55;49.13
39613;BME280;25303;48.896;13.342;2023-04-28T03:55:52;92788.59;;;7.55;48.86
39613;BME280;25303;48.896;13.342;2023-04-28T03:58:35;92796.97;;;7.57;48.98
39613;BME280;25303;48.896;13.342;2023-04-28T04:01:17;92791.41;;;7.62;49.05
39613;BME280;25303;48.896;13.342;2023-04-28T04:04:02;92786.44;;;7.60;49.03
39613;BME280;25303;48.896;13.342;2023-04-28T04:06:45;92774.69;;;7.68;48.62
39613;BME280;25303;48.896;13.342;2023-04-28T04:09:30;92778.88;;;7.69;48.68
39613;BME280;25303;48.896;13.342;2023-04-28T04:12:13;92772.66;;;7.71;48.61
39613;BME280;25303;48.896;13.342;2023-04-28T04:14:56;92764.00;;;7.72;48.81
39613;BME280;25303;48.896;13.342;2023-04-28T04:17:39;92765.63;;;7.73;48.82
39613;BME280;25303;48.896;13.342;2023-04-28T04:20:22;92768.84;;;7.75;48.60
39613;BME280;25303;48.896;13.342;2023-04-28T04:23:05;92775.59;;;7.77;48.56
39613;BME280;25303;48.896;13.342;2023-04-28T04:25:49;92773.03;;;7.77;48.56
39613;BME280;25303;48.896;13.342;2023-04-28T04:28:32;92780.84;;;7.75;48.68
39613;BME280;25303;48.896;13.342;2023-04-28T04:31:17;92777.50;;;7.74;48.81
39613;BME280;25303;48.896;13.342;2023-04-28T04:34:01;92774.78;;;7.76;48.98
39613;BME280;25303;48.896;13.342;2023-04-28T04:36:44;92782.19;;;7.79;48.98
39613;BME280;25303;48.896;13.342;2023-04-28T04:39:28;92780.28;;;7.81;48.92
39613;BME280;25303;48.896;13.342;2023-04-28T04:42:12;92784.31;;;7.84;48.72
39613;BME280;25303;48.896;13.342;2023-04-28T04:45:24;92777.31;;;7.86;49.04
39613;BME280;25303;48.896;13.342;2023-04-28T04:48:08;92781.19;;;7.90;48.85
39613;BME280;25303;48.896;13.342;2023-04-28T04:50:51;92780.91;;;7.93;48.68
39613;BME280;25303;48.896;13.342;2023-04-28T04:53:34;92783.72;;;8.00;48.96
39613;BME280;25303;48.896;13.342;2023-04-28T04:56:19;92784.22;;;8.03;48.81
39613;BME280;25303;48.896;13.342;2023-04-28T04:59:05;92789.75;;;8.09;48.81
39613;BME280;25303;48.896;13.342;2023-04-28T05:01:57;92786.09;;;8.11;48.60
39613;BME280;25303;48.896;13.342;2023-04-28T05:04:40;92781.75;;;8.12;48.46
39613;BME280;25303;48.896;13.342;2023-04-28T05:07:25;92774.72;;;8.14;48.71
39613;BME280;25303;48.896;13.342;2023-04-28T05:10:09;92773.88;;;8.23;48.63
39613;BME280;25303;48.896;13.342;2023-04-28T05:12:53;92768.31;;;8.28;48.33
39613;BME280;25303;48.896;13.342;2023-04-28T05:15:38;92770.31;;;8.34;48.42
39613;BME280;25303;48.896;13.342;2023-04-28T05:18:39;92762.97;;;8.39;48.31
39613;BME280;25303;48.896;13.342;2023-04-28T05:21:23;92771.81;;;8.45;48.43
39613;BME280;25303;48.896;13.342;2023-04-28T05:24:07;92757.78;;;8.49;48.29
39613;BME280;25303;48.896;13.342;2023-04-28T05:26:50;92754.78;;;8.54;48.35
39613;BME280;25303;48.896;13.342;2023-04-28T05:29:35;92755.59;;;8.54;48.30
39613;BME280;25303;48.896;13.342;2023-04-28T05:32:20;92755.03;;;8.60;48.54
39613;BME280;25303;48.896;13.342;2023-04-28T05:35:05;92762.78;;;8.69;48.46
39613;BME280;25303;48.896;13.342;2023-04-28T05:37:48;92754.50;;;8.75;48.27
39613;BME280;25303;48.896;13.342;2023-04-28T05:40:31;92760.50;;;8.84;48.44
39613;BME280;25303;48.896;13.342;2023-04-28T05:43:14;92761.50;;;8.91;48.31
39613;BME280;25303;48.896;13.342;2023-04-28T05:45:58;92754.84;;;8.98;48.39
39613;BME280;25303;48.896;13.342;2023-04-28T05:48:42;92740.44;;;9.05;48.23
39613;BME280;25303;48.896;13.342;2023-04-28T05:51:25;92734.72;;;9.11;48.06
39613;BME280;25303;48.896;13.342;2023-04-28T05:54:08;92731.09;;;9.22;47.74
39613;BME280;25303;48.896;13.342;2023-04-28T05:56:57;92738.84;;;9.31;47.80
39613;BME280;25303;48.896;13.342;2023-04-28T05:59:43;92731.31;;;9.37;47.73
39613;BME280;25303;48.896;13.342;2023-04-28T06:02:28;92732.34;;;9.45;47.75
39613;BME280;25303;48.896;13.342;2023-04-28T06:05:12;92726.59;;;9.51;47.79
39613;BME280;25303;48.896;13.342;2023-04-28T06:07:56;92727.56;;;9.58;47.77
39613;BME280;25303;48.896;13.342;2023-04-28T06:10:39;92723.28;;;9.67;47.62
39613;BME280;25303;48.896;13.342;2023-04-28T06:13:22;92728.78;;;9.72;47.51
39613;BME280;25303;48.896;13.342;2023-04-28T06:16:05;92727.50;;;9.76;47.45
39613;BME280;25303;48.896;13.342;2023-04-28T06:18:48;92729.94;;;9.86;47.34
39613;BME280;25303;48.896;13.342;2023-04-28T06:21:34;92737.69;;;9.94;47.30
39613;BME280;25303;48.896;13.342;2023-04-28T06:24:17;92737.22;;;9.99;47.02
39613;BME280;25303;48.896;13.342;2023-04-28T06:27:01;92739.31;;;10.03;46.83
39613;BME280;25303;48.896;13.342;2023-04-28T06:29:44;92750.44;;;10.12;46.98
39613;BME280;25303;48.896;13.342;2023-04-28T06:32:27;92744.38;;;10.22;46.65
39613;BME280;25303;48.896;13.342;2023-04-28T06:35:10;92750.47;;;10.29;46.70
39613;BME280;25303;48.896;13.342;2023-04-28T06:37:54;92756.13;;;10.32;46.54
39613;BME280;25303;48.896;13.342;2023-04-28T06:40:37;92759.72;;;10.40;46.52
39613;BME280;25303;48.896;13.342;2023-04-28T06:43:21;92758.78;;;10.49;46.32
39613;BME280;25303;48.896;13.342;2023-04-28T06:46:16;92754.75;;;10.55;46.20
39613;BME280;25303;48.896;13.342;2023-04-28T06:48:59;92743.31;;;10.57;46.17
39613;BME280;25303;48.896;13.342;2023-04-28T06:51:43;92744.63;;;10.61;46.25
39613;BME280;25303;48.896;13.342;2023-04-28T06:54:28;92743.97;;;10.68;46.40
39613;BME280;25303;48.896;13.342;2023-04-28T06:57:11;92755.88;;;10.69;46.14
39613;BME280;25303;48.896;13.342;2023-04-28T06:59:54;92759.28;;;10.69;46.32
39613;BME280;25303;48.896;13.342;2023-04-28T07:02:37;92753.31;;;10.77;46.75
39613;BME280;25303;48.896;13.342;2023-04-28T07:05:20;92749.47;;;10.81;46.86
39613;BME280;25303;48.896;13.342;2023-04-28T07:08:03;92750.13;;;10.83;46.63
39613;BME280;25303;48.896;13.342;2023-04-28T07:10:48;92737.72;;;10.87;46.56
39613;BME280;25303;48.896;13.342;2023-04-28T07:13:31;92734.66;;;10.91;46.51
39613;BME280;25303;48.896;13.342;2023-04-28T07:16:14;92728.53;;;11.01;46.44
39613;BME280;25303;48.896;13.342;2023-04-28T07:18:58;92717.59;;;11.07;46.69
39613;BME280;25303;48.896;13.342;2023-04-28T07:21:41;92715.31;;;11.12;46.54
39613;BME280;25303;48.896;13.342;2023-04-28T07:24:24;92716.44;;;11.18;46.49
39613;BME280;25303;48.896;13.342;2023-04-28T07:27:09;92715.47;;;11.19;46.37
39613;BME280;25303;48.896;13.342;2023-04-28T07:29:52;92719.16;;;11.24;46.54
39613;BME280;25303;48.896;13.342;2023-04-28T07:32:34;92724.16;;;11.34;46.25
39613;BME280;25303;48.896;13.342;2023-04-28T07:35:17;92729.59;;;11.48;46.23
39613;BME280;25303;48.896;13.342;2023-04-28T07:38:01;92722.94;;;11.62;46.10
39613;BME280;25303;48.896;13.342;2023-04-28T07:40:44;92716.78;;;11.71;45.84
39613;BME280;25303;48.896;13.342;2023-04-28T07:43:29;92708.53;;;11.84;46.04
39613;BME280;25303;48.896;13.342;2023-04-28T07:46:12;92710.25;;;11.92;45.81
39613;BME280;25303;48.896;13.342;2023-04-28T07:48:55;92712.34;;;11.96;45.59
39613;BME280;25303;48.896;13.342;2023-04-28T07:51:38;92711.06;;;12.00;45.61
39613;BME280;25303;48.896;13.342;2023-04-28T07:54:22;92712.81;;;12.08;45.69
39613;BME280;25303;48.896;13.342;2023-04-28T07:57:06;92713.56;;;12.17;45.72
39613;BME280;25303;48.896;13.342;2023-04-28T07:59:52;92704.97;;;12.25;45.52
39613;BME280;25303;48.896;13.342;2023-04-28T08:02:36;92696.03;;;12.36;45.67
39613;BME280;25303;48.896;13.342;2023-04-28T08:05:20;92701.94;;;12.44;45.56
39613;BME280;25303;48.896;13.342;2023-04-28T08:08:03;92704.34;;;12.46;45.15
39613;BME280;25303;48.896;13.342;2023-04-28T08:10:47;92702.22;;;12.50;45.11
39613;BME280;25303;48.896;13.342;2023-04-28T08:13:31;92705.91;;;12.55;45.38
39613;BME280;25303;48.896;13.342;2023-04-28T08:16:16;92706.19;;;12.60;45.20
39613;BME280;25303;48.896;13.342;2023-04-28T08:19:00;92705.16;;;12.70;45.00
39613;BME280;25303;48.896;13.342;2023-04-28T08:21:43;92705.44;;;12.75;45.16
39613;BME280;25303;48.896;13.342;2023-04-28T08:24:26;92703.59;;;12.84;45.30
39613;BME280;25303;48.896;13.342;2023-04-28T08:27:11;92693.53;;;12.89;45.43
39613;BME280;25303;48.896;13.342;2023-04-28T08:29:54;92695.50;;;12.87;45.13
39613;BME280;25303;48.896;13.342;2023-04-28T08:32:39;92699.00;;;12.94;45.20
39613;BME280;25303;48.896;13.342;2023-04-28T08:35:22;92699.25;;;12.99;45.07
39613;BME280;25303;48.896;13.342;2023-04-28T08:38:05;92698.13;;;13.02;44.92
39613;BME280;25303;48.896;13.342;2023-04-28T08:40:54;92695.34;;;13.03;44.62
39613;BME280;25303;48.896;13.342;2023-04-28T08:43:37;92691.00;;;13.04;44.50
39613;BME280;25303;48.896;13.342;2023-04-28T08:46:22;92691.00;;;13.04;44.46
39613;BME280;25303;48.896;13.342;2023-04-28T08:49:13;92696.34;;;13.02;44.58
39613;BME280;25303;48.896;13.342;2023-04-28T08:51:58;92699.72;;;13.03;44.76
39613;BME280;25303;48.896;13.342;2023-04-28T08:54:43;92707.31;;;13.04;44.81
39613;BME280;25303;48.896;13.342;2023-04-28T08:57:27;92718.81;;;13.02;44.72
39613;BME280;25303;48.896;13.342;2023-04-28T09:00:13;92715.88;;;13.05;44.88
39613;BME280;25303;48.896;13.342;2023-04-28T09:02:56;92712.84;;;13.16;44.94
39613;BME280;25303;48.896;13.342;2023-04-28T09:05:40;92715.47;;;13.31;45.32
39613;BME280;25303;48.896;13.342;2023-04-28T09:08:25;92711.31;;;13.45;45.12
39613;BME280;25303;48.896;13.342;2023-04-28T09:11:09;92716.56;;;13.52;45.40
39613;BME280;25303;48.896;13.342;2023-04-28T09:14:10;92717.03;;;13.56;45.29
39613;BME280;25303;48.896;13.342;2023-04-28T09:16:54;92715.34;;;13.48;45.35
39613;BME280;25303;48.896;13.342;2023-04-28T09:19:38;92715.94;;;13.50;45.58
39613;BME280;25303;48.896;13.342;2023-04-28T09:22:27;92723.31;;;13.38;45.39
39613;BME280;25303;48.896;13.342;2023-04-28T09:25:10;92719.44;;;13.19;44.96
39613;BME280;25303;48.896;13.342;2023-04-28T09:27:53;92712.16;;;13.22;45.21
39613;BME280;25303;48.896;13.342;2023-04-28T09:30:37;92712.03;;;13.01;44.92
39613;BME280;25303;48.896;13.342;2023-04-28T09:33:21;92702.16;;;12.81;45.60
39613;BME280;25303;48.896;13.342;2023-04-28T09:36:04;92705.56;;;12.82;45.44
39613;BME280;25303;48.896;13.342;2023-04-28T09:38:49;92707.34;;;12.81;45.53
39613;BME280;25303;48.896;13.342;2023-04-28T09:41:35;92704.47;;;12.76;45.83
39613;BME280;25303;48.896;13.342;2023-04-28T09:44:20;92699.75;;;12.80;45.80
39613;BME280;25303;48.896;13.342;2023-04-28T09:47:18;92688.75;;;12.63;46.02
39613;BME280;25303;48.896;13.342;2023-04-28T09:50:03;92686.50;;;12.59;46.47
39613;BME280;25303;48.896;13.342;2023-04-28T09:52:54;92686.88;;;12.56;46.91
39613;BME280;25303;48.896;13.342;2023-04-28T09:55:42;92681.84;;;12.55;47.07
39613;BME280;25303;48.896;13.342;2023-04-28T09:58:27;92687.53;;;12.50;46.95
39613;BME280;25303;48.896;13.342;2023-04-28T10:01:10;92678.16;;;12.57;47.01
39613;BME280;25303;48.896;13.342;2023-04-28T10:03:55;92674.31;;;12.68;46.93
39613;BME280;25303;48.896;13.342;2023-04-28T10:06:40;92673.84;;;12.73;46.94
39613;BME280;25303;48.896;13.342;2023-04-28T10:09:23;92659.31;;;12.87;47.13
39613;BME280;25303;48.896;13.342;2023-04-28T10:12:08;92666.19;;;12.95;47.14
39613;BME280;25303;48.896;13.342;2023-04-28T10:14:51;92673.91;;;13.03;47.21
39613;BME280;25303;48.896;13.342;2023-04-28T10:17:35;92676.19;;;12.98;47.28
39613;BME280;25303;48.896;13.342;2023-04-28T10:20:19;92672.25;;;12.87;47.69
39613;BME280;25303;48.896;13.342;2023-04-28T10:23:20;92673.41;;;12.84;48.06
39613;BME280;25303;48.896;13.342;2023-04-28T10:26:11;92666.81;;;12.82;48.29
39613;BME280;25303;48.896;13.342;2023-04-28T10:28:56;92677.38;;;12.72;48.49
39613;BME280;25303;48.896;13.342;2023-04-28T10:32:21;92673.69;;;12.66;49.34
39613;BME280;25303;48.896;13.342;2023-04-28T10:38:21;92673.47;;;12.53;49.96
39613;BME280;25303;48.896;13.342;2023-04-28T10:41:04;92673.03;;;12.49;50.49
39613;BME280;25303;48.896;13.342;2023-04-28T10:44:42;92673.56;;;12.44;51.25
39613;BME280;25303;48.896;13.342;2023-04-28T10:47:25;92676.03;;;12.38;50.99
39613;BME280;25303;48.896;13.342;2023-04-28T10:50:09;92674.94;;;12.32;51.33
39613;BME280;25303;48.896;13.342;2023-04-28T10:52:52;92669.47;;;12.27;51.96
39613;BME280;25303;48.896;13.342;2023-04-28T10:55:35;92671.75;;;12.22;52.51
39613;BME280;25303;48.896;13.342;2023-04-28T10:58:29;92667.97;;;12.09;54.38
39613;BME280;25303;48.896;13.342;2023-04-28T11:01:28;92672.19;;;12.02;53.77
39613;BME280;25303;48.896;13.342;2023-04-28T11:04:12;92657.25;;;11.89;53.74
39613;BME280;25303;48.896;13.342;2023-04-28T11:07:10;92650.81;;;11.85;54.56
39613;BME280;25303;48.896;13.342;2023-04-28T11:09:55;92658.38;;;11.86;54.56
39613;BME280;25303;48.896;13.342;2023-04-28T11:16:07;92649.84;;;11.86;55.12
39613;BME280;25303;48.896;13.342;2023-04-28T11:18:56;92641.47;;;11.84;55.44
39613;BME280;25303;48.896;13.342;2023-04-28T11:21:40;92648.56;;;11.82;55.63
39613;BME280;25303;48.896;13.342;2023-04-28T11:24:24;92644.22;;;11.82;56.09
39613;BME280;25303;48.896;13.342;2023-04-28T11:27:08;92647.13;;;11.79;56.99
39613;BME280;25303;48.896;13.342;2023-04-28T11:29:51;92648.09;;;11.78;56.42
39613;BME280;25303;48.896;13.342;2023-04-28T11:32:35;92649.22;;;11.76;56.82
39613;BME280;25303;48.896;13.342;2023-04-28T11:35:22;92636.22;;;11.69;57.24
39613;BME280;25303;48.896;13.342;2023-04-28T11:38:05;92634.13;;;11.64;58.04
39613;BME280;25303;48.896;13.342;2023-04-28T11:40:57;92633.88;;;11.51;59.75
39613;BME280;25303;48.896;13.342;2023-04-28T11:43:40;92641.81;;;11.41;59.25
39613;BME280;25303;48.896;13.342;2023-04-28T11:46:28;92637.03;;;11.30;59.58
39613;BME280;25303;48.896;13.342;2023-04-28T11:49:12;92638.00;;;11.20;59.25
39613;BME280;25303;48.896;13.342;2023-04-28T11:51:57;92638.50;;;11.16;59.84
39613;BME280;25303;48.896;13.342;2023-04-28T11:54:52;92640.63;;;11.12;59.87
39613;BME280;25303;48.896;13.342;2023-04-28T11:57:35;92652.69;;;11.12;59.54
39613;BME280;25303;48.896;13.342;2023-04-28T12:00:19;92649.31;;;11.11;60.00
39613;BME280;25303;48.896;13.342;2023-04-28T12:03:06;92653.50;;;11.12;60.18
39613;BME280;25303;48.896;13.342;2023-04-28T12:05:49;92649.78;;;11.15;60.12
39613;BME280;25303;48.896;13.342;2023-04-28T12:08:33;92652.53;;;11.13;60.34
39613;BME280;25303;48.896;13.342;2023-04-28T12:11:17;92637.06;;;11.13;60.76
39613;BME280;25303;48.896;13.342;2023-04-28T12:14:04;92627.72;;;11.12;62.30
39613;BME280;25303;48.896;13.342;2023-04-28T12:16:47;92616.66;;;11.03;62.51
39613;BME280;25303;48.896;13.342;2023-04-28T12:19:42;92608.44;;;11.00;63.56
39613;BME280;25303;48.896;13.342;2023-04-28T12:22:26;92615.88;;;10.86;63.52
39613;BME280;25303;48.896;13.342;2023-04-28T12:25:12;92624.41;;;10.78;64.27
39613;BME280;25303;48.896;13.342;2023-04-28T12:27:58;92636.16;;;10.73;64.91
39613;BME280;25303;48.896;13.342;2023-04-28T12:30:42;92646.50;;;10.64;65.09
39613;BME280;25303;48.896;13.342;2023-04-28T12:33:26;92635.53;;;10.54;65.73
39613;BME280;25303;48.896;13.342;2023-04-28T12:36:10;92608.38;;;10.52;65.34
39613;BME280;25303;48.896;13.342;2023-04-28T12:38:54;92619.78;;;10.57;65.39
39613;BME280;25303;48.896;13.342;2023-04-28T12:41:39;92625.25;;;10.62;66.10
39613;BME280;25303;48.896;13.342;2023-04-28T12:44:21;92636.19;;;10.64;66.66
39613;BME280;25303;48.896;13.342;2023-04-28T12:47:06;92617.34;;;10.64;66.28
39613;BME280;25303;48.896;13.342;2023-04-28T12:49:49;92595.66;;;10.58;68.87
39613;BME280;25303;48.896;13.342;2023-04-28T12:52:33;92616.25;;;10.50;68.85
39613;BME280;25303;48.896;13.342;2023-04-28T12:55:18;92607.72;;;10.49;68.65
39613;BME280;25303;48.896;13.342;2023-04-28T12:58:03;92609.66;;;10.39;69.28
39613;BME280;25303;48.896;13.342;2023-04-28T13:00:45;92600.78;;;10.33;69.66
39613;BME280;25303;48.896;13.342;2023-04-28T13:03:28;92606.25;;;10.22;70.09
39613;BME280;25303;48.896;13.342;2023-04-28T13:06:12;92609.94;;;10.11;70.27
39613;BME280;25303;48.896;13.342;2023-04-28T13:08:56;92609.28;;;10.01;71.19
39613;BME280;25303;48.896;13.342;2023-04-28T13:11:40;92610.06;;;9.93;71.30
39613;BME280;25303;48.896;13.342;2023-04-28T13:14:24;92613.94;;;9.97;70.90
39613;BME280;25303;48.896;13.342;2023-04-28T13:17:08;92613.13;;;9.97;71.03
39613;BME280;25303;48.896;13.342;2023-04-28T13:19:53;92612.81;;;10.00;70.78
39613;BME280;25303;48.896;13.342;2023-04-28T13:22:36;92619.91;;;10.14;70.22
39613;BME280;25303;48.896;13.342;2023-04-28T13:25:19;92612.84;;;10.16;70.42
39613;BME280;25303;48.896;13.342;2023-04-28T13:28:03;92609.75;;;10.04;71.27
39613;BME280;25303;48.896;13.342;2023-04-28T13:30:47;92609.94;;;10.11;70.70
39613;BME280;25303;48.896;13.342;2023-04-28T13:33:30;92610.28;;;10.08;70.92
39613;BME280;25303;48.896;13.342;2023-04-28T13:36:13;92604.63;;;10.13;70.93
39613;BME280;25303;48.896;13.342;2023-04-28T13:38:57;92610.09;;;10.18;70.64
39613;BME280;25303;48.896;13.342;2023-04-28T13:41:43;92604.63;;;10.21;71.07
39613;BME280;25303;48.896;13.342;2023-04-28T13:44:25;92600.59;;;10.02;72.06
39613;BME280;25303;48.896;13.342;2023-04-28T13:47:10;92604.44;;;9.98;72.38
39613;BME280;25303;48.896;13.342;2023-04-28T13:49:53;92609.13;;;9.94;72.14
39613;BME280;25303;48.896;13.342;2023-04-28T13:52:35;92593.84;;;10.01;71.64
39613;BME280;25303;48.896;13.342;2023-04-28T13:55:19;92595.00;;;9.98;72.13
39613;BME280;25303;48.896;13.342;2023-04-28T13:58:08;92598.22;;;10.00;72.57
39613;BME280;25303;48.896;13.342;2023-04-28T14:00:51;92589.84;;;9.98;72.28
39613;BME280;25303;48.896;13.342;2023-04-28T14:03:39;92590.63;;;9.91;72.81
39613;BME280;25303;48.896;13.342;2023-04-28T14:06:23;92598.84;;;9.94;72.36
39613;BME280;25303;48.896;13.342;2023-04-28T14:09:06;92608.00;;;9.97;71.93
39613;BME280;25303;48.896;13.342;2023-04-28T14:11:50;92598.00;;;9.94;72.41
39613;BME280;25303;48.896;13.342;2023-04-28T14:14:33;92591.09;;;9.86;73.16
39613;BME280;25303;48.896;13.342;2023-04-28T14:17:20;92590.78;;;9.89;72.58
39613;BME280;25303;48.896;13.342;2023-04-28T14:20:06;92586.78;;;9.86;73.05
39613;BME280;25303;48.896;13.342;2023-04-28T14:22:52;92587.38;;;9.80;73.63
39613;BME280;25303;48.896;13.342;2023-04-28T14:25:35;92589.66;;;9.83;73.20
39613;BME280;25303;48.896;13.342;2023-04-28T14:28:18;92588.03;;;9.82;73.94
39613;BME280;25303;48.896;13.342;2023-04-28T14:31:03;92592.22;;;9.83;74.97
39613;BME280;25303;48.896;13.342;2023-04-28T14:33:48;92593.19;;;9.82;73.82